Virtual Norwegian is not affiliated with Norwegian Air Shuttle in any way.
If you are looking for the real "Norwegian", or you wish to book Norwegian flights, please visit Norwegian.com


We use cookies to ensure you get the best experience on our website.   ACCEPT

ENTC - TOS - Tromso (Langnes)

General Info Alternate Airport
ICAO: ENTC Elevation: 31 ft ICAO: ENBO
IATA: TOS Country: Norway IATA: BOO
City: Tromso Charts: Log in to view charts City: Bodo
Name: Langnes Hub: No Name Bodo
General Info
ICAO: ENTC
IATA: TOS
City: Tromso
Name: Langnes
Elevation: 31 ft
Country: Norway
Charts: Log in to view charts
Hub: No
 
Alternate Airport
ICAO: ENBO
IATA: BOO
City: Bodo
Name: Bodo

Weather
240550Z 26015KT 9999 -SHRA SCT010 BKN020 05/02 Q0988 TEMPO SHRA BKN014 RMK WIND 2600FT 31022KT
Weather
240550Z 26015KT 9999 -SHRA SCT010 BKN020 05/02 Q0988 TEMPO SHRA BKN014 RMK WIND 2600FT 31022KT

Runway Info
01
Length ILS/LOC Course
2447 m 110.90 006
19
Length ILS/LOC Course
2447 m 109.90 186

NOTAMs
NOTAMs currently unavailable.
NOTAMs
NOTAMs currently unavailable

Route map
Airport
Airport (hub)